createdAt,value
2022-11-02T00:00:15.063Z,23.60
2022-11-02T00:03:36.592Z,24.10
2022-11-02T00:06:58.295Z,24.00
2022-11-02T00:10:15.095Z,23.30
2022-11-02T00:13:16.935Z,22.40
2022-11-02T00:16:19.990Z,22.60
2022-11-02T00:19:21.771Z,22.60
2022-11-02T00:22:24.066Z,22.60
2022-11-02T00:25:26.835Z,22.90
2022-11-02T00:28:29.198Z,23.20
2022-11-02T00:31:33.897Z,22.50
2022-11-02T00:34:35.555Z,21.60
2022-11-02T00:37:37.670Z,22.30
2022-11-02T00:40:39.504Z,23.10
2022-11-02T00:43:41.229Z,25.50
2022-11-02T00:46:42.881Z,23.80
2022-11-02T00:49:44.573Z,24.80
2022-11-02T00:52:46.364Z,23.90
2022-11-02T00:55:48.084Z,23.60
2022-11-02T00:58:49.879Z,23.80
2022-11-02T01:01:51.831Z,22.70
2022-11-02T01:04:56.683Z,23.50
2022-11-02T01:07:58.546Z,23.00
2022-11-02T01:11:19.318Z,22.40
2022-11-02T01:14:21.711Z,23.10
2022-11-02T01:17:23.464Z,23.70
2022-11-02T01:20:25.512Z,22.70
2022-11-02T01:23:27.436Z,21.90
2022-11-02T01:26:29.215Z,22.50
2022-11-02T01:29:30.898Z,21.70
2022-11-02T01:32:32.722Z,22.60
2022-11-02T01:35:37.002Z,23.20
2022-11-02T01:38:38.725Z,22.60
2022-11-02T01:41:41.323Z,23.90
2022-11-02T01:44:44.199Z,23.70
2022-11-02T01:47:48.553Z,22.50
2022-11-02T01:50:50.211Z,24.60
2022-11-02T01:53:53.055Z,22.50
2022-11-02T01:57:01.702Z,23.00
2022-11-02T02:00:12.197Z,23.60
2022-11-02T02:03:18.986Z,25.10
2022-11-02T02:06:20.846Z,25.10
2022-11-02T02:09:23.493Z,25.90
2022-11-02T02:12:25.822Z,24.80
2022-11-02T02:15:39.400Z,25.80
2022-11-02T02:18:47.740Z,24.50
2022-11-02T02:22:05.494Z,25.10
2022-11-02T02:25:31.703Z,26.60
2022-11-02T02:28:57.049Z,25.60
2022-11-02T02:32:36.417Z,25.10
2022-11-02T02:35:49.271Z,26.80
2022-11-02T02:39:13.413Z,25.90
2022-11-02T02:42:21.779Z,25.90
2022-11-02T02:45:23.380Z,25.50
2022-11-02T02:48:25.776Z,26.20
2022-11-02T02:51:32.544Z,26.70
2022-11-02T02:54:42.648Z,27.50
2022-11-02T02:57:45.842Z,29.00
2022-11-02T03:00:47.962Z,27.40
2022-11-02T03:03:49.701Z,27.10
2022-11-02T03:06:58.138Z,27.50
2022-11-02T03:10:10.731Z,26.80
2022-11-02T03:13:21.108Z,27.70
2022-11-02T03:16:35.386Z,26.80
2022-11-02T03:19:42.627Z,26.10
2022-11-02T03:22:58.259Z,26.30
2022-11-02T03:26:11.305Z,27.10
2022-11-02T03:29:16.633Z,25.30
2022-11-02T03:32:39.100Z,25.50
2022-11-02T03:35:47.461Z,25.00
2022-11-02T03:38:53.657Z,24.00
2022-11-02T03:41:56.910Z,25.90
2022-11-02T03:45:07.860Z,24.90
2022-11-02T03:48:12.187Z,24.00
2022-11-02T03:51:16.150Z,24.50
2022-11-02T03:54:43.678Z,24.40
2022-11-02T03:57:47.870Z,26.00
2022-11-02T04:00:58.853Z,26.00
2022-11-02T04:04:00.569Z,24.90
2022-11-02T04:07:05.338Z,25.70
2022-11-02T04:10:07.397Z,25.90
2022-11-02T04:13:27.953Z,25.70
2022-11-02T04:16:29.634Z,24.60
2022-11-02T04:19:31.270Z,25.60
2022-11-02T04:22:51.830Z,26.90
2022-11-02T04:25:56.340Z,28.80
2022-11-02T04:28:58.084Z,29.60
2022-11-02T04:31:59.906Z,29.10
2022-11-02T04:35:02.197Z,29.20
2022-11-02T04:38:22.904Z,29.90
2022-11-02T04:41:43.567Z,28.70
2022-11-02T04:44:45.198Z,29.50
2022-11-02T04:47:46.799Z,29.60
2022-11-02T04:50:48.493Z,28.70
2022-11-02T04:53:50.655Z,29.60
2022-11-02T04:56:52.485Z,30.10
2022-11-02T04:59:54.140Z,29.70
2022-11-02T05:02:55.975Z,30.10
2022-11-02T05:05:57.675Z,29.50
2022-11-02T05:08:59.321Z,28.50
2022-11-02T05:12:02.025Z,28.40
2022-11-02T05:15:04.975Z,28.50
2022-11-02T05:18:07.111Z,29.30
2022-11-02T05:21:11.040Z,28.60
2022-11-02T05:24:12.686Z,29.50
2022-11-02T05:27:15.470Z,28.30
2022-11-02T05:30:17.179Z,29.90
2022-11-02T05:33:19.012Z,29.70
2022-11-02T05:36:20.735Z,29.60
2022-11-02T05:39:22.425Z,29.40
2022-11-02T05:42:26.012Z,28.80
2022-11-02T05:45:27.791Z,27.60
2022-11-02T05:48:32.430Z,29.10
2022-11-02T05:51:34.146Z,27.60
2022-11-02T05:54:36.058Z,27.30
2022-11-02T05:57:37.804Z,28.40
2022-11-02T06:00:40.523Z,29.90
2022-11-02T06:03:42.338Z,29.70
2022-11-02T06:06:44.163Z,29.80
2022-11-02T06:09:45.877Z,28.90
2022-11-02T06:12:47.575Z,29.50
2022-11-02T06:15:49.358Z,28.80
2022-11-02T06:18:51.964Z,29.80
2022-11-02T06:21:53.704Z,30.60
2022-11-02T06:24:55.348Z,31.80
2022-11-02T06:27:57.531Z,32.60
2022-11-02T06:30:59.244Z,32.60
2022-11-02T06:34:00.929Z,31.70
2022-11-02T06:37:02.735Z,31.60
2022-11-02T06:40:04.850Z,32.20
2022-11-02T06:43:22.993Z,32.30
2022-11-02T06:46:25.643Z,31.10
2022-11-02T06:49:27.313Z,30.50
2022-11-02T06:52:29.547Z,32.10
2022-11-02T06:55:31.552Z,30.60
2022-11-02T06:58:33.289Z,30.90
2022-11-02T07:01:35.420Z,31.20
2022-11-02T07:04:37.403Z,30.40
2022-11-02T07:07:39.395Z,30.50
2022-11-02T07:10:41.116Z,29.40
2022-11-02T07:13:43.434Z,29.50
2022-11-02T07:16:45.314Z,27.10
2022-11-02T07:19:47.035Z,27.70
2022-11-02T07:22:56.939Z,27.00
2022-11-02T07:26:01.621Z,27.80
2022-11-02T07:29:03.633Z,28.50
2022-11-02T07:32:07.738Z,28.50
2022-11-02T07:35:11.477Z,29.20
2022-11-02T07:38:13.596Z,29.40
2022-11-02T07:41:15.393Z,27.70
2022-11-02T07:44:17.073Z,32.00
2022-11-02T07:47:18.888Z,32.10
2022-11-02T07:50:23.225Z,29.00
2022-11-02T07:53:24.871Z,27.60
2022-11-02T07:56:26.625Z,26.20
2022-11-02T07:59:28.961Z,26.70
2022-11-02T08:02:30.767Z,25.20
2022-11-02T08:05:35.069Z,24.80
2022-11-02T08:08:37.152Z,25.60
2022-11-02T08:11:39.202Z,26.30
2022-11-02T08:14:40.950Z,25.40
2022-11-02T08:17:42.880Z,25.20
2022-11-02T08:20:46.364Z,24.90
2022-11-02T08:23:48.087Z,25.20
2022-11-02T08:26:53.904Z,24.90
2022-11-02T08:29:57.305Z,23.70
2022-11-02T08:33:13.308Z,23.20
2022-11-02T08:36:15.191Z,23.60
2022-11-02T08:39:19.069Z,22.60
2022-11-02T08:42:21.091Z,23.80
2022-11-02T08:45:22.793Z,22.50
2022-11-02T08:48:24.823Z,21.70
2022-11-02T08:51:26.410Z,23.20
2022-11-02T08:54:28.727Z,21.80
2022-11-02T08:57:30.425Z,22.80
2022-11-02T09:00:33.962Z,21.60
2022-11-02T09:03:35.837Z,21.10
2022-11-02T09:06:37.540Z,20.40
2022-11-02T09:09:39.309Z,20.80
2022-11-02T09:12:40.953Z,20.60
2022-11-02T09:15:59.558Z,20.40
2022-11-02T09:19:05.288Z,18.90
2022-11-02T09:22:07.213Z,20.50
2022-11-02T09:25:09.689Z,19.30
2022-11-02T09:28:13.290Z,19.70
2022-11-02T09:31:15.054Z,19.80
2022-11-02T09:34:17.028Z,20.80
2022-11-02T09:37:18.972Z,18.80
2022-11-02T09:40:23.351Z,18.20
2022-11-02T09:43:38.242Z,18.30
2022-11-02T09:46:43.562Z,17.70
2022-11-02T09:49:45.583Z,17.60
2022-11-02T09:52:52.284Z,17.40
2022-11-02T09:55:57.537Z,17.20
2022-11-02T09:59:23.358Z,16.70
2022-11-02T10:02:47.074Z,16.90
2022-11-02T10:06:04.565Z,16.20
2022-11-02T10:09:37.941Z,17.00
2022-11-02T10:12:55.489Z,14.70
2022-11-02T10:16:02.391Z,12.50
2022-11-02T10:19:10.131Z,12.20
2022-11-02T10:22:14.015Z,11.70
2022-11-02T10:25:16.612Z,12.60
2022-11-02T10:28:26.327Z,11.40
2022-11-02T10:31:33.401Z,10.80
2022-11-02T10:34:35.333Z,11.10
2022-11-02T10:38:16.604Z,10.00
2022-11-02T10:41:21.423Z,9.90
2022-11-02T10:44:59.175Z,9.60
2022-11-02T10:48:11.495Z,9.60
2022-11-02T10:51:14.822Z,9.00
2022-11-02T10:54:20.576Z,9.80
2022-11-02T10:57:28.158Z,10.40
2022-11-02T11:00:35.467Z,10.10
2022-11-02T11:04:01.482Z,10.20
2022-11-02T11:07:21.080Z,9.80
2022-11-02T11:10:23.759Z,9.60
2022-11-02T11:16:56.508Z,7.70
2022-11-02T11:20:02.741Z,6.70
2022-11-02T11:23:21.462Z,6.50
2022-11-02T11:26:28.463Z,7.10
2022-11-02T11:29:32.786Z,8.20
2022-11-02T11:32:35.569Z,8.50
2022-11-02T11:35:38.857Z,8.00
2022-11-02T11:38:47.135Z,6.80
2022-11-02T11:41:48.966Z,7.50
2022-11-02T11:45:03.067Z,7.40
2022-11-02T11:48:23.026Z,6.80
2022-11-02T11:51:34.246Z,7.00
2022-11-02T11:54:36.675Z,6.20
2022-11-02T12:00:45.167Z,6.40
2022-11-02T12:04:01.355Z,6.50
2022-11-02T12:07:09.455Z,5.80
2022-11-02T12:10:21.897Z,6.60
2022-11-02T12:13:45.558Z,8.80
2022-11-02T12:17:12.501Z,7.70
2022-11-02T12:20:38.498Z,6.50
2022-11-02T12:23:52.895Z,6.30
2022-11-02T12:27:15.808Z,5.60
2022-11-02T12:30:22.056Z,5.80
2022-11-02T12:33:35.353Z,5.50
2022-11-02T12:40:24.082Z,5.60
2022-11-02T12:43:39.428Z,6.00
2022-11-02T12:46:57.165Z,5.90
2022-11-02T12:50:01.892Z,5.40
2022-11-02T12:53:19.130Z,6.10
2022-11-02T12:56:26.539Z,6.00
2022-11-02T12:59:31.498Z,6.70
2022-11-02T13:02:45.269Z,5.60
2022-11-02T13:05:54.664Z,5.70
2022-11-02T13:09:09.253Z,5.80
2022-11-02T13:12:15.250Z,5.40
2022-11-02T13:15:20.153Z,5.20
2022-11-02T13:18:24.865Z,5.60
2022-11-02T13:21:44.165Z,5.60
2022-11-02T13:24:50.314Z,6.00
2022-11-02T13:27:54.892Z,5.80
2022-11-02T13:30:57.144Z,5.80
2022-11-02T13:34:02.414Z,5.50
2022-11-02T13:37:17.472Z,5.80
2022-11-02T13:40:26.490Z,5.60
2022-11-02T13:43:43.217Z,5.90
2022-11-02T13:46:59.895Z,5.10
2022-11-02T13:50:03.565Z,5.00
2022-11-02T13:53:08.933Z,5.80
2022-11-02T13:56:12.911Z,4.80
2022-11-02T13:59:24.237Z,5.80
2022-11-02T14:02:29.185Z,6.60
2022-11-02T14:05:33.212Z,6.70
2022-11-02T14:08:38.257Z,5.90
2022-11-02T14:11:40.258Z,6.50
2022-11-02T14:14:41.927Z,6.20
2022-11-02T14:17:56.509Z,5.80
2022-11-02T14:20:58.719Z,6.60
2022-11-02T14:24:00.733Z,7.00
2022-11-02T14:27:13.012Z,9.10
2022-11-02T14:33:38.328Z,16.80
2022-11-02T14:37:01.143Z,7.90
2022-11-02T14:40:26.737Z,7.10
2022-11-02T14:43:50.007Z,6.60
2022-11-02T14:47:07.986Z,6.20
2022-11-02T14:50:12.635Z,7.90
2022-11-02T14:53:25.393Z,7.50
2022-11-02T14:57:06.620Z,7.80
2022-11-02T15:00:17.898Z,6.90
2022-11-02T15:03:25.754Z,20.60
2022-11-02T15:06:28.489Z,26.60
2022-11-02T15:09:59.269Z,47.90
2022-11-02T15:13:19.459Z,158.40
2022-11-02T15:16:22.563Z,41.40
2022-11-02T15:19:47.368Z,13.50
2022-11-02T15:22:52.830Z,11.40
2022-11-02T15:25:55.097Z,11.10
2022-11-02T15:28:59.131Z,12.00
2022-11-02T15:32:01.681Z,12.70
2022-11-02T15:35:04.146Z,17.40
2022-11-02T15:38:30.354Z,18.10
2022-11-02T15:41:45.012Z,14.10
2022-11-02T15:45:05.411Z,12.10
2022-11-02T15:48:22.260Z,12.60
2022-11-02T15:51:47.162Z,14.50
2022-11-02T15:55:10.597Z,14.70
2022-11-02T15:58:21.841Z,15.80
2022-11-02T16:01:25.593Z,14.90
2022-11-02T16:04:27.982Z,15.00
2022-11-02T16:07:43.585Z,15.20
2022-11-02T16:11:04.344Z,13.10
2022-11-02T16:14:17.331Z,15.10
2022-11-02T16:17:27.106Z,16.30
2022-11-02T16:20:31.936Z,15.30
2022-11-02T16:23:36.739Z,14.10
2022-11-02T16:26:38.550Z,16.90
2022-11-02T16:29:41.125Z,17.70
2022-11-02T16:32:43.123Z,15.60
2022-11-02T16:35:44.850Z,13.00
2022-11-02T16:38:54.525Z,12.90
2022-11-02T16:41:58.625Z,12.10
2022-11-02T16:45:01.278Z,12.30
2022-11-02T16:48:04.680Z,13.80
2022-11-02T16:51:18.171Z,14.00
2022-11-02T16:54:26.745Z,15.30
2022-11-02T16:57:31.334Z,15.50
2022-11-02T17:00:34.172Z,14.30
2022-11-02T17:03:35.939Z,12.60
2022-11-02T17:06:43.124Z,13.20
2022-11-02T17:09:54.061Z,14.10
2022-11-02T17:12:56.432Z,14.80
2022-11-02T17:16:04.723Z,15.30
2022-11-02T17:19:06.347Z,14.50
2022-11-02T17:22:29.344Z,14.60
2022-11-02T17:25:39.601Z,14.30
2022-11-02T17:28:44.908Z,15.20
2022-11-02T17:31:53.563Z,15.20
2022-11-02T17:34:57.033Z,14.90
2022-11-02T17:37:58.720Z,14.60
2022-11-02T17:41:00.911Z,14.80
2022-11-02T17:44:03.112Z,15.40
2022-11-02T17:47:16.040Z,14.00
2022-11-02T17:50:18.668Z,16.00
2022-11-02T17:53:20.621Z,15.80
2022-11-02T17:56:22.219Z,15.70
2022-11-02T17:59:23.855Z,15.20
2022-11-02T18:02:25.593Z,14.80
2022-11-02T18:05:28.690Z,15.80
2022-11-02T18:08:30.394Z,15.20
2022-11-02T18:11:32.173Z,15.80
2022-11-02T18:14:34.223Z,16.30
2022-11-02T18:17:35.802Z,16.60
2022-11-02T18:20:41.615Z,16.50
2022-11-02T18:23:44.723Z,17.90
2022-11-02T18:26:47.205Z,17.30
2022-11-02T18:29:49.005Z,18.40
2022-11-02T18:32:50.639Z,18.10
2022-11-02T18:35:52.318Z,18.70
2022-11-02T18:38:53.993Z,18.10
2022-11-02T18:41:55.577Z,16.50
2022-11-02T18:44:58.651Z,15.90
2022-11-02T18:48:00.330Z,15.30
2022-11-02T18:51:04.704Z,16.70
2022-11-02T18:54:06.533Z,15.90
2022-11-02T18:57:08.144Z,16.20
2022-11-02T19:00:10.270Z,16.80
2022-11-02T19:03:11.895Z,17.20
2022-11-02T19:06:32.493Z,17.60
2022-11-02T19:09:35.994Z,17.50
2022-11-02T19:12:37.929Z,18.50
2022-11-02T19:15:42.533Z,18.60
2022-11-02T19:18:44.777Z,19.60
2022-11-02T19:21:46.963Z,20.80
2022-11-02T19:24:50.113Z,19.70
2022-11-02T19:27:51.777Z,19.50
2022-11-02T19:30:53.421Z,20.90
2022-11-02T19:33:55.074Z,21.10
2022-11-02T19:36:56.726Z,22.00
2022-11-02T19:39:58.312Z,23.60
2022-11-02T19:43:00.022Z,23.60
2022-11-02T19:46:02.656Z,23.00
2022-11-02T19:49:04.263Z,22.30
2022-11-02T19:52:05.859Z,22.30
2022-11-02T19:55:07.861Z,21.70
2022-11-02T19:58:09.644Z,22.20
2022-11-02T20:01:13.909Z,22.10
2022-11-02T20:04:15.747Z,24.60
2022-11-02T20:07:17.451Z,24.50
2022-11-02T20:10:19.087Z,25.30
2022-11-02T20:13:20.674Z,24.30
2022-11-02T20:16:22.547Z,22.60
2022-11-02T20:19:24.157Z,22.30
2022-11-02T20:22:25.866Z,22.90
2022-11-02T20:25:27.654Z,20.60
2022-11-02T20:28:29.534Z,22.40
2022-11-02T20:31:34.072Z,23.60
2022-11-02T20:34:36.860Z,25.00
2022-11-02T20:37:38.479Z,23.90
2022-11-02T20:40:41.386Z,25.60
2022-11-02T20:43:45.501Z,24.40
2022-11-02T20:46:52.761Z,23.20
2022-11-02T20:49:55.154Z,23.00
2022-11-02T20:52:58.736Z,23.60
2022-11-02T20:56:00.940Z,22.60
2022-11-02T20:59:02.779Z,22.90
2022-11-02T21:02:04.550Z,22.20
2022-11-02T21:05:06.676Z,22.00
2022-11-02T21:08:08.325Z,22.50
2022-11-02T21:11:29.671Z,22.60
2022-11-02T21:14:31.462Z,21.70
2022-11-02T21:17:34.695Z,21.00
2022-11-02T21:20:36.810Z,22.80
2022-11-02T21:23:38.920Z,22.70
2022-11-02T21:26:40.535Z,22.70
2022-11-02T21:29:42.355Z,22.90
2022-11-02T21:32:44.017Z,21.50
2022-11-02T21:35:47.711Z,21.10
2022-11-02T21:38:49.472Z,22.00
2022-11-02T21:41:51.276Z,22.30
2022-11-02T21:44:52.888Z,22.80
2022-11-02T21:47:54.455Z,21.70
2022-11-02T21:51:13.185Z,22.50
2022-11-02T21:54:18.081Z,24.40
2022-11-02T21:57:20.867Z,22.20
2022-11-02T22:00:22.552Z,23.20
2022-11-02T22:03:24.307Z,21.40
2022-11-02T22:06:30.942Z,22.10
2022-11-02T22:09:33.571Z,23.00
2022-11-02T22:12:54.232Z,22.20
2022-11-02T22:15:55.955Z,23.40
2022-11-02T22:18:59.637Z,23.10
2022-11-02T22:22:01.416Z,22.50
2022-11-02T22:25:03.161Z,21.70
2022-11-02T22:28:04.975Z,23.50
2022-11-02T22:31:15.652Z,23.50
2022-11-02T22:34:17.368Z,23.80
2022-11-02T22:37:38.106Z,23.90
2022-11-02T22:40:39.688Z,24.20
2022-11-02T22:43:42.397Z,22.70
2022-11-02T22:46:46.580Z,23.10
2022-11-02T22:49:48.647Z,24.90
2022-11-02T22:52:50.214Z,24.70
2022-11-02T22:56:03.651Z,24.60
2022-11-02T22:59:06.091Z,24.60
2022-11-02T23:02:07.858Z,24.90
2022-11-02T23:05:09.975Z,25.00
2022-11-02T23:08:11.632Z,25.30
2022-11-02T23:11:21.340Z,24.90
2022-11-02T23:14:23.107Z,25.70
2022-11-02T23:17:25.044Z,24.90
2022-11-02T23:20:26.671Z,25.60
2022-11-02T23:23:46.992Z,26.00
2022-11-02T23:26:49.699Z,26.10
2022-11-02T23:30:10.063Z,25.70
2022-11-02T23:33:12.143Z,26.70
2022-11-02T23:36:15.472Z,25.00
2022-11-02T23:39:49.514Z,27.30
2022-11-02T23:42:51.288Z,27.70
2022-11-02T23:45:52.937Z,25.60
2022-11-02T23:48:54.552Z,27.20
2022-11-02T23:55:39.386Z,27.20
2022-11-02T23:58:41.180Z,27.00
